createdAt,value
2022-11-22T04:55:23.579Z,15.63
2022-11-22T04:58:26.671Z,16.27
2022-11-22T05:01:29.325Z,13.82
2022-11-22T05:04:32.263Z,12.93
2022-11-22T05:07:34.652Z,14.90
2022-11-22T05:11:13.362Z,13.85
2022-11-22T05:14:15.971Z,12.98
2022-11-22T05:17:18.799Z,15.68
2022-11-22T05:20:21.353Z,12.80
2022-11-22T05:23:43.086Z,12.63
2022-11-22T05:26:45.568Z,13.50
2022-11-22T05:29:48.338Z,14.20
2022-11-22T05:32:50.895Z,14.55
2022-11-22T05:35:59.594Z,12.25
2022-11-22T05:39:03.083Z,14.70
2022-11-22T05:42:06.024Z,14.98
2022-11-22T05:45:09.062Z,15.88
2022-11-22T05:48:11.768Z,15.80
2022-11-22T05:51:19.566Z,17.37
2022-11-22T05:54:22.246Z,18.62
2022-11-22T05:57:24.798Z,14.10
2022-11-22T06:00:28.398Z,14.85
2022-11-22T06:03:31.341Z,17.12
2022-11-22T06:06:33.812Z,17.00
2022-11-22T06:09:37.970Z,20.73
2022-11-22T06:12:40.466Z,15.63
2022-11-22T06:15:43.207Z,19.20
2022-11-22T06:18:46.055Z,20.08
2022-11-22T06:21:48.789Z,17.37
2022-11-22T06:24:53.747Z,24.98
2022-11-22T06:27:59.193Z,37.25
2022-11-22T06:31:02.993Z,37.13
2022-11-22T06:34:06.926Z,45.15
2022-11-22T06:37:09.406Z,36.17
2022-11-22T06:40:12.421Z,34.22
2022-11-22T06:43:15.185Z,27.73
2022-11-22T06:46:19.668Z,25.37
2022-11-22T06:49:22.199Z,25.70
2022-11-22T06:52:26.611Z,25.37
2022-11-22T06:55:49.492Z,23.20
2022-11-22T06:58:52.993Z,22.90
2022-11-22T07:02:00.166Z,20.73
2022-11-22T07:08:32.591Z,20.35
2022-11-22T07:11:36.446Z,19.83
2022-11-22T07:14:38.983Z,16.23
2022-11-22T07:17:42.307Z,19.92
2022-11-22T07:20:44.848Z,16.60
2022-11-22T07:23:50.111Z,16.35
2022-11-22T07:26:52.704Z,16.50
2022-11-22T07:29:55.424Z,16.45
2022-11-22T07:32:57.996Z,17.90
2022-11-22T07:36:12.581Z,15.88
2022-11-22T07:39:16.002Z,16.25
2022-11-22T07:42:23.684Z,14.85
2022-11-22T07:45:28.951Z,14.65
2022-11-22T07:48:31.858Z,19.45
2022-11-22T07:51:34.495Z,17.45
2022-11-22T07:54:37.241Z,15.57
2022-11-22T07:57:39.636Z,16.45
2022-11-22T08:00:42.473Z,19.52
2022-11-22T08:03:46.215Z,16.37
2022-11-22T08:06:48.615Z,17.75
2022-11-22T08:09:51.317Z,16.20
2022-11-22T08:12:53.756Z,17.77
2022-11-22T08:16:05.528Z,16.12
2022-11-22T08:19:08.392Z,16.90
2022-11-22T08:22:11.185Z,18.23
2022-11-22T08:25:13.862Z,16.02
2022-11-22T08:28:16.643Z,16.60
2022-11-22T08:31:23.064Z,17.20
2022-11-22T08:34:25.826Z,17.75
2022-11-22T08:37:28.662Z,17.50
2022-11-22T08:40:32.866Z,16.67
2022-11-22T08:43:38.105Z,15.60
2022-11-22T08:46:41.011Z,14.65
2022-11-22T08:49:44.388Z,17.95
2022-11-22T08:52:47.260Z,15.02
2022-11-22T08:55:50.317Z,15.80
2022-11-22T08:58:54.462Z,19.80
2022-11-22T09:01:57.138Z,15.95
2022-11-22T09:05:00.036Z,17.10
2022-11-22T09:11:26.009Z,18.48
2022-11-22T09:14:28.655Z,20.08
2022-11-22T09:17:31.353Z,21.65
2022-11-22T09:20:33.943Z,18.12
2022-11-22T09:23:37.610Z,18.33
2022-11-22T09:26:40.144Z,21.23
2022-11-22T09:29:42.930Z,20.20
2022-11-22T09:32:45.363Z,18.87
2022-11-22T09:35:48.078Z,22.08
2022-11-22T09:38:51.706Z,21.98
2022-11-22T09:42:10.506Z,21.70
2022-11-22T09:45:15.995Z,22.40
2022-11-22T09:48:38.148Z,19.98
2022-11-22T09:51:47.608Z,20.73
2022-11-22T09:54:57.440Z,25.62
2022-11-22T09:58:33.533Z,21.87
2022-11-22T10:01:42.530Z,23.40
2022-11-22T10:04:51.008Z,21.67
2022-11-22T10:08:11.046Z,26.02
2022-11-22T10:11:36.726Z,23.33
2022-11-22T10:14:45.185Z,21.98
2022-11-22T10:18:02.115Z,24.40
2022-11-22T10:21:05.152Z,21.70
2022-11-22T10:24:15.328Z,24.63
2022-11-22T10:30:21.455Z,20.60
2022-11-22T10:34:08.728Z,20.90
2022-11-22T10:37:14.183Z,20.77
2022-11-22T10:40:36.958Z,30.30
2022-11-22T10:43:55.787Z,27.58
2022-11-22T10:47:34.338Z,25.60
2022-11-22T10:50:46.764Z,24.58
2022-11-22T10:54:23.852Z,26.80
2022-11-22T10:57:37.356Z,23.12
2022-11-22T11:00:44.600Z,27.50
2022-11-22T11:03:51.258Z,22.92
2022-11-22T11:07:12.069Z,26.33
2022-11-22T11:10:29.289Z,26.58
2022-11-22T11:13:47.638Z,25.92
2022-11-22T11:16:53.010Z,23.48
2022-11-22T11:19:59.877Z,24.33
2022-11-22T11:23:18.399Z,24.77
2022-11-22T11:26:31.132Z,25.40
2022-11-22T11:29:39.809Z,25.05
2022-11-22T11:32:56.711Z,26.83
2022-11-22T11:36:07.304Z,27.50
2022-11-22T11:39:21.272Z,26.02
2022-11-22T11:42:25.557Z,24.75
2022-11-22T11:45:29.486Z,26.65
2022-11-22T11:48:43.679Z,26.62
2022-11-22T11:52:19.384Z,28.38
2022-11-22T11:55:22.620Z,25.45
2022-11-22T11:58:25.309Z,28.58
2022-11-22T12:01:28.490Z,27.05
2022-11-22T12:04:37.347Z,29.45
2022-11-22T12:07:47.964Z,26.62
2022-11-22T12:11:01.987Z,26.67
2022-11-22T12:14:23.225Z,31.42
2022-11-22T12:17:30.484Z,28.90
2022-11-22T12:20:41.868Z,29.10
2022-11-22T12:24:13.240Z,26.12
2022-11-22T12:27:19.325Z,31.15
2022-11-22T12:30:24.080Z,30.73
2022-11-22T12:33:34.148Z,33.05
2022-11-22T12:36:59.954Z,30.83
2022-11-22T12:40:14.076Z,33.63
2022-11-22T12:43:26.656Z,28.30
2022-11-22T12:46:41.401Z,30.15
2022-11-22T12:49:48.876Z,29.33
2022-11-22T12:52:58.806Z,30.67
2022-11-22T12:56:10.582Z,27.02
2022-11-22T12:59:27.858Z,25.65
2022-11-22T13:02:34.096Z,25.42
2022-11-22T13:05:56.566Z,22.77
2022-11-22T13:09:04.550Z,27.35
2022-11-22T13:12:16.537Z,26.27
2022-11-22T13:15:27.932Z,27.08
2022-11-22T13:18:34.091Z,28.58
2022-11-22T13:21:51.971Z,22.80
2022-11-22T13:25:16.551Z,31.17
2022-11-22T13:28:24.080Z,23.85
2022-11-22T13:31:26.875Z,27.70
2022-11-22T13:34:31.159Z,23.20
2022-11-22T13:37:40.519Z,21.52
2022-11-22T13:40:47.178Z,24.12
2022-11-22T13:43:54.218Z,22.20
2022-11-22T13:47:05.238Z,22.33
2022-11-22T13:50:43.820Z,21.52
2022-11-22T13:53:48.053Z,23.00
2022-11-22T13:57:00.668Z,21.62
2022-11-22T14:00:12.758Z,20.92
2022-11-22T14:03:43.135Z,19.67
2022-11-22T14:07:10.690Z,23.05
2022-11-22T14:10:37.695Z,22.95
2022-11-22T14:14:08.489Z,22.77
2022-11-22T14:17:42.073Z,19.67
2022-11-22T14:20:56.953Z,23.23
2022-11-22T14:24:28.746Z,23.17
2022-11-22T14:28:00.527Z,23.85
2022-11-22T14:31:21.598Z,20.52
2022-11-22T14:34:29.447Z,19.75
2022-11-22T14:37:32.529Z,23.77
2022-11-22T14:40:36.695Z,20.67
2022-11-22T14:43:41.244Z,21.75
2022-11-22T14:46:53.567Z,19.30
2022-11-22T14:49:57.438Z,20.12
2022-11-22T14:53:16.844Z,19.85
2022-11-22T14:56:34.852Z,19.98
2022-11-22T15:00:00.009Z,20.17
2022-11-22T15:03:37.149Z,23.48
2022-11-22T15:09:21.290Z,20.40
2022-11-22T15:10:45.754Z,24.50
2022-11-22T15:14:41.297Z,24.40
2022-11-22T15:59:46.848Z,22.92
2022-11-22T16:02:54.846Z,22.70
2022-11-22T16:06:11.306Z,19.23
2022-11-22T16:09:24.504Z,20.90
2022-11-22T16:12:38.229Z,18.85
2022-11-22T16:15:41.228Z,18.90
2022-11-22T16:18:45.089Z,25.00
2022-11-22T16:21:57.523Z,18.00
2022-11-22T16:25:22.926Z,19.25
2022-11-22T16:28:34.075Z,18.33
2022-11-22T16:31:39.966Z,17.80
2022-11-22T16:34:43.571Z,19.58
2022-11-22T16:37:48.088Z,20.40
2022-11-22T16:40:52.361Z,19.85
2022-11-22T16:43:59.280Z,20.17
2022-11-22T16:47:01.839Z,21.35
2022-11-22T16:50:05.685Z,17.30
2022-11-22T16:53:14.087Z,17.37
2022-11-22T16:56:22.379Z,18.77
